createdAt,value
2018-04-02T00:00:08.556Z,7.23
2018-04-02T00:02:35.944Z,7.22
2018-04-02T00:05:03.349Z,7.20
2018-04-02T00:07:30.734Z,7.19
2018-04-02T00:09:58.264Z,7.24
2018-04-02T00:12:25.660Z,7.14
2018-04-02T00:14:53.044Z,7.09
2018-04-02T00:17:20.438Z,7.02
2018-04-02T00:19:47.821Z,7.03
2018-04-02T00:22:15.279Z,7.03
2018-04-02T00:24:42.664Z,7.01
2018-04-02T00:27:10.049Z,7.01
2018-04-02T00:29:37.449Z,7.01
2018-04-02T00:32:04.830Z,6.97
2018-04-02T00:34:32.264Z,6.97
2018-04-02T00:36:59.661Z,6.95
2018-04-02T00:39:27.047Z,6.94
2018-04-02T00:41:54.809Z,6.97
2018-04-02T00:44:22.189Z,6.97
2018-04-02T00:46:49.570Z,6.95
2018-04-02T00:49:16.964Z,6.99
2018-04-02T00:51:44.393Z,6.94
2018-04-02T00:54:11.780Z,6.83
2018-04-02T00:56:39.162Z,6.88
2018-04-02T00:59:06.548Z,6.93
2018-04-02T01:01:33.934Z,6.93
2018-04-02T01:04:01.317Z,6.97
2018-04-02T01:06:28.707Z,6.88
2018-04-02T01:08:56.092Z,6.89
2018-04-02T01:11:23.469Z,6.91
2018-04-02T01:13:50.860Z,6.86
2018-04-02T01:16:18.249Z,6.80
2018-04-02T01:18:45.636Z,6.75
2018-04-02T01:21:13.012Z,6.72
2018-04-02T01:23:40.400Z,6.62
2018-04-02T01:26:07.785Z,6.59
2018-04-02T01:28:35.181Z,6.47
2018-04-02T01:31:02.570Z,6.37
2018-04-02T01:33:29.952Z,6.33
2018-04-02T01:35:57.328Z,6.28
2018-04-02T01:38:24.717Z,6.23
2018-04-02T01:40:52.109Z,6.16
2018-04-02T01:43:19.801Z,6.12
2018-04-02T01:45:47.181Z,6.10
2018-04-02T01:48:14.568Z,6.02
2018-04-02T01:50:41.965Z,6.00
2018-04-02T01:53:09.407Z,5.97
2018-04-02T01:55:36.805Z,5.96
2018-04-02T01:58:04.193Z,5.91
2018-04-02T02:00:31.572Z,5.88
2018-04-02T02:02:58.959Z,5.85
2018-04-02T02:05:26.339Z,5.79
2018-04-02T02:07:53.728Z,5.73
2018-04-02T02:10:21.116Z,5.74
2018-04-02T02:12:48.504Z,5.74
2018-04-02T02:15:15.888Z,5.76
2018-04-02T02:17:43.293Z,5.75
2018-04-02T02:20:10.684Z,5.81
2018-04-02T02:22:38.064Z,5.78
2018-04-02T02:25:05.456Z,5.75
2018-04-02T02:27:32.832Z,5.77
2018-04-02T02:30:00.224Z,5.80
2018-04-02T02:32:27.596Z,5.70
2018-04-02T02:34:54.984Z,5.66
2018-04-02T02:37:22.368Z,5.63
2018-04-02T02:39:50.085Z,5.63
2018-04-02T02:42:17.556Z,5.60
2018-04-02T02:44:44.941Z,5.55
2018-04-02T02:47:12.337Z,5.58
2018-04-02T02:49:39.753Z,5.57
2018-04-02T02:52:07.158Z,5.58
2018-04-02T02:54:34.539Z,5.51
2018-04-02T02:57:01.928Z,5.40
2018-04-02T02:59:29.313Z,5.30
2018-04-02T03:01:56.704Z,5.34
2018-04-02T03:04:24.137Z,5.25
2018-04-02T03:06:51.463Z,5.24
2018-04-02T03:09:18.862Z,5.24
2018-04-02T03:11:46.268Z,5.21
2018-04-02T03:14:13.666Z,5.17
2018-04-02T03:16:41.060Z,5.21
2018-04-02T03:19:08.529Z,5.19
2018-04-02T03:21:35.930Z,5.23
2018-04-02T03:24:03.392Z,5.29
2018-04-02T03:26:30.809Z,5.32
2018-04-02T03:28:58.164Z,5.35
2018-04-02T03:31:25.573Z,5.41
2018-04-02T03:33:53.052Z,5.38
2018-04-02T03:36:20.450Z,5.41
2018-04-02T03:38:47.847Z,5.46
2018-04-02T03:41:15.252Z,5.47
2018-04-02T03:43:42.656Z,5.42
2018-04-02T03:46:10.054Z,5.52
2018-04-02T03:48:37.436Z,5.46
2018-04-02T03:51:04.820Z,5.48
2018-04-02T03:53:32.220Z,5.36
2018-04-02T03:56:00.225Z,5.39
2018-04-02T03:58:27.285Z,5.40
2018-04-02T04:00:54.740Z,5.48
2018-04-02T04:03:22.128Z,5.49
2018-04-02T04:05:49.529Z,5.43
2018-04-02T04:08:16.908Z,5.39
2018-04-02T04:10:44.299Z,5.29
2018-04-02T04:13:11.784Z,5.27
2018-04-02T04:15:39.152Z,5.23
2018-04-02T04:18:06.540Z,5.18
2018-04-02T04:20:33.936Z,5.21
2018-04-02T04:23:01.314Z,5.14
2018-04-02T04:25:28.696Z,5.12
2018-04-02T04:27:56.087Z,5.15
2018-04-02T04:30:23.473Z,5.17
2018-04-02T04:32:50.864Z,5.16
2018-04-02T04:35:18.245Z,5.17
2018-04-02T04:37:45.646Z,5.22
2018-04-02T04:40:13.073Z,5.19
2018-04-02T04:42:40.417Z,5.14
2018-04-02T04:45:07.800Z,5.14
2018-04-02T04:47:35.195Z,5.10
2018-04-02T04:50:02.584Z,5.04
2018-04-02T04:52:29.977Z,5.07
2018-04-02T04:54:57.360Z,5.03
2018-04-02T04:57:24.752Z,5.01
2018-04-02T04:59:52.152Z,4.99
2018-04-02T05:02:19.640Z,4.94
2018-04-02T05:04:47.136Z,4.98
2018-04-02T05:07:14.513Z,5.02
2018-04-02T05:09:41.899Z,5.03
2018-04-02T05:12:09.293Z,5.03
2018-04-02T05:14:36.679Z,5.05
2018-04-02T05:17:04.076Z,5.11
2018-04-02T05:19:31.460Z,5.12
2018-04-02T05:21:58.884Z,5.17
2018-04-02T05:24:26.265Z,5.20
2018-04-02T05:26:53.692Z,5.22
2018-04-02T05:29:21.077Z,5.41
2018-04-02T05:31:48.476Z,5.37
2018-04-02T05:34:15.885Z,5.40
2018-04-02T05:36:43.274Z,5.47
2018-04-02T05:39:10.668Z,5.53
2018-04-02T05:41:38.041Z,5.54
2018-04-02T05:44:05.482Z,5.51
2018-04-02T05:46:32.954Z,5.60
2018-04-02T05:49:00.344Z,5.60
2018-04-02T05:51:27.785Z,5.77
2018-04-02T05:53:55.177Z,5.81
2018-04-02T05:56:22.589Z,5.94
2018-04-02T05:58:50.000Z,5.91
2018-04-02T06:01:17.378Z,6.03
2018-04-02T06:03:44.762Z,6.08
2018-04-02T06:06:12.226Z,6.00
2018-04-02T06:08:39.602Z,6.00
2018-04-02T06:11:07.000Z,5.96
2018-04-02T06:13:34.407Z,6.03
2018-04-02T06:16:01.785Z,6.02
2018-04-02T06:18:29.204Z,6.09
2018-04-02T06:20:56.588Z,6.23
2018-04-02T06:23:23.968Z,6.26
2018-04-02T06:25:51.381Z,6.30
2018-04-02T06:28:18.801Z,6.40
2018-04-02T06:30:46.160Z,6.38
2018-04-02T06:33:14.077Z,6.49
2018-04-02T06:35:41.444Z,6.49
2018-04-02T06:38:08.828Z,6.64
2018-04-02T06:40:36.249Z,6.78
2018-04-02T06:43:03.612Z,6.93
2018-04-02T06:45:31.065Z,7.12
2018-04-02T06:47:58.436Z,7.16
2018-04-02T06:50:25.824Z,7.11
2018-04-02T06:52:53.218Z,7.21
2018-04-02T06:55:20.931Z,7.28
2018-04-02T06:57:48.317Z,7.40
2018-04-02T07:00:15.697Z,7.53
2018-04-02T07:02:43.096Z,7.50
2018-04-02T07:05:10.479Z,7.58
2018-04-02T07:07:38.029Z,7.60
2018-04-02T07:10:05.394Z,7.67
2018-04-02T07:12:32.784Z,7.72
2018-04-02T07:15:00.160Z,7.64
2018-04-02T07:17:27.582Z,7.73
2018-04-02T07:19:54.938Z,7.84
2018-04-02T07:22:22.352Z,7.93
2018-04-02T07:24:49.740Z,8.02
2018-04-02T07:27:17.127Z,8.14
2018-04-02T07:29:44.607Z,8.31
2018-04-02T07:32:11.983Z,8.42
2018-04-02T07:34:39.424Z,8.52
2018-04-02T07:37:06.813Z,8.63
2018-04-02T07:39:34.193Z,8.54
2018-04-02T07:42:01.592Z,8.63
2018-04-02T07:44:28.974Z,8.70
2018-04-02T07:46:56.362Z,8.77
2018-04-02T07:49:23.740Z,8.94
2018-04-02T07:51:51.140Z,8.99
2018-04-02T07:54:18.531Z,9.04
2018-04-02T07:56:45.911Z,8.96
2018-04-02T07:59:13.293Z,9.08
2018-04-02T08:01:40.689Z,9.15
2018-04-02T08:04:08.068Z,9.20
2018-04-02T08:06:35.444Z,9.18
2018-04-02T08:09:02.832Z,9.40
2018-04-02T08:11:30.212Z,9.50
2018-04-02T08:13:57.614Z,9.64
2018-04-02T08:16:24.981Z,9.73
2018-04-02T08:18:52.454Z,9.77
2018-04-02T08:21:19.861Z,9.68
2018-04-02T08:23:47.222Z,9.76
2018-04-02T08:26:14.608Z,9.86
2018-04-02T08:28:41.993Z,9.80
2018-04-02T08:31:09.376Z,9.84
2018-04-02T08:33:36.770Z,9.88
2018-04-02T08:36:04.224Z,10.08
2018-04-02T08:38:31.601Z,10.14
2018-04-02T08:40:58.982Z,10.23
2018-04-02T08:43:26.448Z,10.33
2018-04-02T08:45:53.824Z,10.40
2018-04-02T08:48:21.198Z,10.46
2018-04-02T08:50:48.584Z,10.65
2018-04-02T08:53:15.999Z,10.72
2018-04-02T08:55:43.384Z,10.93
2018-04-02T08:58:10.767Z,10.93
2018-04-02T09:00:38.172Z,10.97
2018-04-02T09:03:05.589Z,10.88
2018-04-02T09:05:32.960Z,10.91
2018-04-02T09:08:00.382Z,10.87
2018-04-02T09:10:27.790Z,11.00
2018-04-02T09:12:55.181Z,11.20
2018-04-02T09:15:22.556Z,11.20
2018-04-02T09:17:49.957Z,11.24
2018-04-02T09:20:17.345Z,11.18
2018-04-02T09:22:44.737Z,11.22
2018-04-02T09:25:12.131Z,11.18
2018-04-02T09:27:39.528Z,11.13
2018-04-02T09:30:06.916Z,11.43
2018-04-02T09:32:34.306Z,11.40
2018-04-02T09:35:01.685Z,11.44
2018-04-02T09:37:29.072Z,11.76
2018-04-02T09:39:56.472Z,11.88
2018-04-02T09:42:23.849Z,12.08
2018-04-02T09:44:51.242Z,12.38
2018-04-02T09:47:18.629Z,12.51
2018-04-02T09:49:46.016Z,12.72
2018-04-02T09:52:13.424Z,12.75
2018-04-02T09:54:40.820Z,12.92
2018-04-02T09:57:08.200Z,12.96
2018-04-02T09:59:35.588Z,13.10
2018-04-02T10:02:08.464Z,12.80
2018-04-02T10:04:35.947Z,12.84
2018-04-02T10:07:03.254Z,13.07
2018-04-02T10:09:30.636Z,13.11
2018-04-02T10:11:58.072Z,13.10
2018-04-02T10:14:25.457Z,12.85
2018-04-02T10:16:52.840Z,12.99
2018-04-02T10:19:20.237Z,13.04
2018-04-02T10:21:47.616Z,13.16
2018-04-02T10:24:15.012Z,13.34
2018-04-02T10:26:42.433Z,13.48
2018-04-02T10:29:09.819Z,13.41
2018-04-02T10:31:37.197Z,13.37
2018-04-02T10:34:05.036Z,13.39
2018-04-02T10:36:32.425Z,13.46
2018-04-02T10:38:59.887Z,13.63
2018-04-02T10:41:27.281Z,13.97
2018-04-02T10:43:54.704Z,14.04
2018-04-02T10:46:22.103Z,13.86
2018-04-02T10:48:49.484Z,13.82
2018-04-02T10:51:16.891Z,13.71
2018-04-02T10:53:44.273Z,13.73
2018-04-02T10:56:11.673Z,13.81
2018-04-02T10:58:39.064Z,13.98
2018-04-02T11:01:06.446Z,13.98
2018-04-02T11:03:33.832Z,14.08
2018-04-02T11:06:01.237Z,14.09
2018-04-02T11:08:28.628Z,13.91
2018-04-02T11:10:55.991Z,13.91
2018-04-02T11:13:23.402Z,14.02
2018-04-02T11:15:50.799Z,13.77
2018-04-02T11:18:18.188Z,13.59
2018-04-02T11:20:45.574Z,13.65
2018-04-02T11:23:12.970Z,13.56
2018-04-02T11:25:40.400Z,13.39
2018-04-02T11:28:07.769Z,13.26
2018-04-02T11:30:35.153Z,13.25
2018-04-02T11:33:02.545Z,13.29
2018-04-02T11:35:29.942Z,13.26
2018-04-02T11:37:57.328Z,13.27
2018-04-02T11:40:24.720Z,13.19
2018-04-02T11:42:52.114Z,13.34
2018-04-02T11:45:19.496Z,13.50
2018-04-02T11:47:46.938Z,13.43
2018-04-02T11:50:14.304Z,13.39
2018-04-02T11:52:41.698Z,13.53
2018-04-02T11:55:09.100Z,13.67
2018-04-02T11:57:36.492Z,13.78
2018-04-02T12:00:03.876Z,13.77
2018-04-02T12:02:31.306Z,14.02
2018-04-02T12:04:58.684Z,14.18
2018-04-02T12:07:26.085Z,14.38
2018-04-02T12:09:53.495Z,14.50
2018-04-02T12:12:20.878Z,14.51
2018-04-02T12:14:48.274Z,14.54
2018-04-02T12:17:15.665Z,14.54
2018-04-02T12:19:43.058Z,14.36
2018-04-02T12:22:10.452Z,14.34
2018-04-02T12:24:38.153Z,14.28
2018-04-02T12:27:05.532Z,14.21
2018-04-02T12:29:32.912Z,14.22
2018-04-02T12:32:00.304Z,14.25
2018-04-02T12:34:27.709Z,14.26
2018-04-02T12:36:55.096Z,14.37
2018-04-02T12:39:22.480Z,14.46
2018-04-02T12:41:49.875Z,14.44
2018-04-02T12:44:17.276Z,14.50
2018-04-02T12:46:44.649Z,14.28
2018-04-02T12:49:12.047Z,14.26
2018-04-02T12:51:39.446Z,14.23
2018-04-02T12:54:06.840Z,14.33
2018-04-02T12:56:34.229Z,14.46
2018-04-02T12:59:01.672Z,14.55
2018-04-02T13:01:29.022Z,14.47
2018-04-02T13:03:56.415Z,14.35
2018-04-02T13:06:23.793Z,14.21
2018-04-02T13:08:51.196Z,14.26
2018-04-02T13:11:18.581Z,14.36
2018-04-02T13:13:45.965Z,14.34
2018-04-02T13:16:13.356Z,14.23
2018-04-02T13:18:40.739Z,14.34
2018-04-02T13:21:08.129Z,14.36
2018-04-02T13:23:35.538Z,14.48
2018-04-02T13:26:02.924Z,14.53
2018-04-02T13:28:30.313Z,14.54
2018-04-02T13:30:57.706Z,14.66
2018-04-02T13:33:25.162Z,14.88
2018-04-02T13:35:52.479Z,14.92
2018-04-02T13:38:19.895Z,14.91
2018-04-02T13:40:47.264Z,14.97
2018-04-02T13:43:14.664Z,15.11
2018-04-02T13:45:42.070Z,15.40
2018-04-02T13:48:09.461Z,15.37
2018-04-02T13:50:36.853Z,15.46
2018-04-02T13:53:04.236Z,15.63
2018-04-02T13:55:31.633Z,15.72
2018-04-02T13:57:59.012Z,15.42
2018-04-02T14:00:26.407Z,15.62
2018-04-02T14:02:53.821Z,15.73
2018-04-02T14:05:21.205Z,15.83
2018-04-02T14:07:48.593Z,15.90
2018-04-02T14:10:15.985Z,16.05
2018-04-02T14:12:43.372Z,15.95
2018-04-02T14:15:10.776Z,16.10
2018-04-02T14:17:38.162Z,16.15
2018-04-02T14:20:05.540Z,15.95
2018-04-02T14:22:32.932Z,16.04
2018-04-02T14:25:00.313Z,15.98
2018-04-02T14:27:27.708Z,15.83
2018-04-02T14:29:55.101Z,15.65
2018-04-02T14:32:22.492Z,15.62
2018-04-02T14:34:49.878Z,15.50
2018-04-02T14:37:17.256Z,15.42
2018-04-02T14:39:44.644Z,15.39
2018-04-02T14:42:12.037Z,15.33
2018-04-02T14:44:39.465Z,15.52
2018-04-02T14:47:06.804Z,15.50
2018-04-02T14:49:34.192Z,15.47
2018-04-02T14:52:01.580Z,15.50
2018-04-02T14:54:28.988Z,15.49
2018-04-02T14:56:56.368Z,15.44
2018-04-02T14:59:23.756Z,15.52
2018-04-02T15:01:51.149Z,15.59
2018-04-02T15:04:18.533Z,15.64
2018-04-02T15:06:45.912Z,15.50
2018-04-02T15:09:13.292Z,15.35
2018-04-02T15:11:40.685Z,15.25
2018-04-02T15:14:08.061Z,15.21
2018-04-02T15:16:35.451Z,15.12
2018-04-02T15:19:02.828Z,15.10
2018-04-02T15:21:30.208Z,15.07
2018-04-02T15:23:57.596Z,14.98
2018-04-02T15:26:24.992Z,14.87
2018-04-02T15:28:52.368Z,14.83
2018-04-02T15:31:19.788Z,14.74
2018-04-02T15:33:47.180Z,14.70
2018-04-02T15:36:15.516Z,14.71
2018-04-02T15:38:42.895Z,14.60
2018-04-02T15:41:10.334Z,14.56
2018-04-02T15:43:37.712Z,14.61
2018-04-02T15:46:05.096Z,14.63
2018-04-02T15:48:32.485Z,14.64
2018-04-02T15:50:59.876Z,14.68
2018-04-02T15:53:27.248Z,14.75
2018-04-02T15:55:54.645Z,14.71
2018-04-02T15:58:22.019Z,14.67
2018-04-02T16:00:49.404Z,14.71
2018-04-02T16:03:16.811Z,14.73
2018-04-02T16:05:44.183Z,14.81
2018-04-02T16:08:11.583Z,14.76
2018-04-02T16:10:38.957Z,14.74
2018-04-02T16:13:06.352Z,14.75
2018-04-02T16:15:33.740Z,14.81
2018-04-02T16:18:01.181Z,14.68
2018-04-02T16:20:28.579Z,14.54
2018-04-02T16:22:55.967Z,14.57
2018-04-02T16:25:23.356Z,14.56
2018-04-02T16:27:50.744Z,14.49
2018-04-02T16:30:18.140Z,14.49
2018-04-02T16:32:45.613Z,14.48
2018-04-02T16:35:13.007Z,14.34
2018-04-02T16:37:40.394Z,14.37
2018-04-02T16:40:07.784Z,14.38
2018-04-02T16:42:35.232Z,14.33
2018-04-02T16:45:02.544Z,14.27
2018-04-02T16:47:29.945Z,14.32
2018-04-02T16:49:57.339Z,14.21
2018-04-02T16:52:24.784Z,14.18
2018-04-02T16:54:52.172Z,14.24
2018-04-02T16:57:19.575Z,14.23
2018-04-02T16:59:46.958Z,14.21
2018-04-02T17:02:14.341Z,14.22
2018-04-02T17:04:41.737Z,14.22
2018-04-02T17:07:09.160Z,14.14
2018-04-02T17:09:36.640Z,14.17
2018-04-02T17:12:04.028Z,14.15
2018-04-02T17:14:31.424Z,14.12
2018-04-02T17:16:58.792Z,14.15
2018-04-02T17:19:26.200Z,14.06
2018-04-02T17:21:53.604Z,14.11
2018-04-02T17:24:20.992Z,14.10
2018-04-02T17:26:48.377Z,14.04
2018-04-02T17:29:15.763Z,14.02
2018-04-02T17:31:43.160Z,14.03
2018-04-02T17:34:10.562Z,14.00
2018-04-02T17:36:37.933Z,13.98
2018-04-02T17:39:06.175Z,13.95
2018-04-02T17:41:33.564Z,13.97
2018-04-02T17:44:00.949Z,13.98
2018-04-02T17:46:28.365Z,13.85
2018-04-02T17:48:55.752Z,13.70
2018-04-02T17:51:23.145Z,13.68
2018-04-02T17:53:50.525Z,13.58
2018-04-02T17:56:17.916Z,13.41
2018-04-02T17:58:45.312Z,13.40
2018-04-02T18:01:12.689Z,13.31
2018-04-02T18:03:40.080Z,13.20
2018-04-02T18:06:07.492Z,13.25
2018-04-02T18:08:34.911Z,13.17
2018-04-02T18:11:02.300Z,13.16
2018-04-02T18:13:29.693Z,13.10
2018-04-02T18:15:57.120Z,13.04
2018-04-02T18:18:24.500Z,12.91
2018-04-02T18:20:51.908Z,12.85
2018-04-02T18:23:19.282Z,12.74
2018-04-02T18:25:46.664Z,12.66
2018-04-02T18:28:14.057Z,12.57
2018-04-02T18:30:41.504Z,12.40
2018-04-02T18:33:08.959Z,12.25
2018-04-02T18:35:36.331Z,12.17
2018-04-02T18:38:03.758Z,12.15
2018-04-02T18:40:31.217Z,12.08
2018-04-02T18:42:58.634Z,12.06
2018-04-02T18:45:26.048Z,12.00
2018-04-02T18:47:53.465Z,12.01
2018-04-02T18:50:20.868Z,11.93
2018-04-02T18:52:48.268Z,11.91
2018-04-02T18:55:15.733Z,11.91
2018-04-02T18:57:43.242Z,11.85
2018-04-02T19:00:10.641Z,11.81
2018-04-02T19:02:38.032Z,11.73
2018-04-02T19:05:05.457Z,11.63
2018-04-02T19:07:32.853Z,11.54
2018-04-02T19:10:00.542Z,11.59
2018-04-02T19:12:27.929Z,11.46
2018-04-02T19:14:55.333Z,11.45
2018-04-02T19:17:22.733Z,11.43
2018-04-02T19:19:50.117Z,11.37
2018-04-02T19:22:17.554Z,11.36
2018-04-02T19:24:44.957Z,11.40
2018-04-02T19:27:12.353Z,11.41
2018-04-02T19:29:39.846Z,11.35
2018-04-02T19:32:07.327Z,11.28
2018-04-02T19:34:34.717Z,11.24
2018-04-02T19:37:02.116Z,11.17
2018-04-02T19:39:29.502Z,11.17
2018-04-02T19:41:56.892Z,11.11
2018-04-02T19:44:24.285Z,11.10
2018-04-02T19:46:51.665Z,10.91
2018-04-02T19:49:19.068Z,11.02
2018-04-02T19:51:47.152Z,11.11
2018-04-02T19:54:14.528Z,11.10
2018-04-02T19:56:41.932Z,11.16
2018-04-02T19:59:09.333Z,11.11
2018-04-02T20:01:36.724Z,11.19
2018-04-02T20:04:04.103Z,11.23
2018-04-02T20:06:31.510Z,11.11
2018-04-02T20:08:58.889Z,11.17
2018-04-02T20:11:26.298Z,11.19
2018-04-02T20:13:53.669Z,11.15
2018-04-02T20:16:21.056Z,11.14
2018-04-02T20:18:48.447Z,11.16
2018-04-02T20:21:15.845Z,11.18
2018-04-02T20:23:43.224Z,11.24
2018-04-02T20:26:10.596Z,11.18
2018-04-02T20:28:37.996Z,11.18
2018-04-02T20:31:05.389Z,11.19
2018-04-02T20:33:32.847Z,11.17
2018-04-02T20:36:00.240Z,11.19
2018-04-02T20:38:27.640Z,11.06
2018-04-02T20:40:55.031Z,11.05
2018-04-02T20:43:22.430Z,11.06
2018-04-02T20:45:49.802Z,11.02
2018-04-02T20:48:17.189Z,11.02
2018-04-02T20:50:44.577Z,10.99
2018-04-02T20:53:12.012Z,10.88
2018-04-02T20:55:39.396Z,10.90
2018-04-02T20:58:06.793Z,10.98
2018-04-02T21:00:34.176Z,10.85
2018-04-02T21:03:01.581Z,10.86
2018-04-02T21:05:28.964Z,10.85
2018-04-02T21:07:56.361Z,10.80
2018-04-02T21:10:23.764Z,10.82
2018-04-02T21:12:51.151Z,10.91
2018-04-02T21:15:18.612Z,10.84
2018-04-02T21:17:45.992Z,10.92
2018-04-02T21:20:13.397Z,10.97
2018-04-02T21:22:40.780Z,11.02
2018-04-02T21:25:08.162Z,10.98
2018-04-02T21:27:35.564Z,10.88
2018-04-02T21:30:02.948Z,10.89
2018-04-02T21:32:30.332Z,10.87
2018-04-02T21:34:57.727Z,10.90
2018-04-02T21:37:25.108Z,10.89
2018-04-02T21:39:52.500Z,10.84
2018-04-02T21:42:19.899Z,10.84
2018-04-02T21:44:47.292Z,10.81
2018-04-02T21:47:14.680Z,10.88
2018-04-02T21:49:42.085Z,10.96
2018-04-02T21:52:09.473Z,10.95
2018-04-02T21:54:36.853Z,10.95
2018-04-02T21:57:04.244Z,10.97
2018-04-02T21:59:31.657Z,10.95
2018-04-02T22:01:59.053Z,11.00
2018-04-02T22:04:26.444Z,11.08
2018-04-02T22:07:05.507Z,11.11
2018-04-02T22:09:32.888Z,11.15
2018-04-02T22:12:00.284Z,11.07
2018-04-02T22:14:27.675Z,11.18
2018-04-02T22:16:55.055Z,11.21
2018-04-02T22:19:22.447Z,11.27
2018-04-02T22:21:49.836Z,11.32
2018-04-02T22:24:17.216Z,11.26
2018-04-02T22:26:44.608Z,11.31
2018-04-02T22:29:12.002Z,11.30
2018-04-02T22:31:39.380Z,11.35
2018-04-02T22:34:06.785Z,11.34
2018-04-02T22:36:34.165Z,11.36
2018-04-02T22:39:01.574Z,11.43
2018-04-02T22:41:28.961Z,11.35
2018-04-02T22:43:56.341Z,11.44
2018-04-02T22:46:23.732Z,11.46
2018-04-02T22:48:51.122Z,11.44
2018-04-02T22:51:18.547Z,11.43
2018-04-02T22:53:45.936Z,11.40
2018-04-02T22:56:13.357Z,11.46
2018-04-02T22:58:40.735Z,11.41
2018-04-02T23:01:08.139Z,11.44
2018-04-02T23:03:35.509Z,11.48
2018-04-02T23:06:02.935Z,11.47
2018-04-02T23:08:30.336Z,11.46
2018-04-02T23:10:57.709Z,11.44
2018-04-02T23:13:25.111Z,11.41
2018-04-02T23:15:52.501Z,11.33
2018-04-02T23:18:19.920Z,11.26
2018-04-02T23:20:47.305Z,11.23
2018-04-02T23:23:14.680Z,11.16
2018-04-02T23:25:42.072Z,11.06
2018-04-02T23:28:09.470Z,10.93
2018-04-02T23:30:36.859Z,10.98
2018-04-02T23:33:04.240Z,10.96
2018-04-02T23:35:31.625Z,10.86
2018-04-02T23:37:59.016Z,10.91
2018-04-02T23:40:26.408Z,10.71
2018-04-02T23:42:53.795Z,10.61
2018-04-02T23:45:21.180Z,10.61
2018-04-02T23:47:48.576Z,10.57
2018-04-02T23:50:15.982Z,10.57
2018-04-02T23:52:43.365Z,10.39
2018-04-02T23:55:10.753Z,10.39
2018-04-02T23:57:38.156Z,10.31
